Time;durP1;ratioP1;P1;durP2;ratioP2;P2;SDS_P1;SDS_P2;PMS_P1;PMS_P2;Temp;Humidity;BMP_temperature;BMP_pressure;BME280_temperature;BME280_humidity;BME280_pressure;Samples;Min_cycle;Max_cycle;Signal;HPM_P1;HPM_P2
2022/07/17 00:01:19;;;;;;;6.32;2.83;;;15.00;99.90;;;;;;5034740;28;20036;-76
2022/07/17 00:03:45;;;;;;;4.97;2.55;;;14.90;99.90;;;;;;5034622;28;20033;-76
2022/07/17 00:06:10;;;;;;;4.57;2.60;;;14.90;99.90;;;;;;5034994;28;20493;-76
2022/07/17 00:08:36;;;;;;;7.22;2.83;;;14.80;99.90;;;;;;5034750;28;20075;-76
2022/07/17 00:11:02;;;;;;;5.07;2.72;;;14.80;99.90;;;;;;5007416;28;20034;-76
2022/07/17 00:13:28;;;;;;;4.20;2.42;;;14.80;99.90;;;;;;5034936;28;20025;-76
2022/07/17 00:15:54;;;;;;;5.97;2.95;;;14.80;99.90;;;;;;5017210;28;20108;-76
2022/07/17 00:18:19;;;;;;;5.22;3.38;;;14.70;99.90;;;;;;5034669;28;20470;-76
2022/07/17 00:20:45;;;;;;;6.78;3.13;;;14.70;99.90;;;;;;5034424;28;20028;-77
2022/07/17 00:23:10;;;;;;;6.78;2.80;;;14.60;99.90;;;;;;5034437;28;20037;-76
2022/07/17 00:25:36;;;;;;;4.53;2.90;;;14.60;99.90;;;;;;5034234;28;20040;-76
2022/07/17 00:28:02;;;;;;;6.88;3.53;;;14.50;99.90;;;;;;5034411;28;20049;-76
2022/07/17 00:30:28;;;;;;;5.25;3.00;;;14.50;99.90;;;;;;5034280;28;20049;-76
2022/07/17 00:32:54;;;;;;;5.63;2.80;;;14.50;99.90;;;;;;5030990;28;20337;-76
2022/07/17 00:35:19;;;;;;;5.85;3.08;;;14.50;99.90;;;;;;5014402;28;20034;-76
2022/07/17 00:37:46;;;;;;;7.20;3.10;;;14.40;99.90;;;;;;5014783;28;20036;-76
2022/07/17 00:40:17;;;;;;;5.07;2.80;;;14.40;99.90;;;;;;5015026;28;20034;-76
2022/07/17 00:42:43;;;;;;;5.88;2.92;;;14.40;99.90;;;;;;5029257;28;20418;-76
2022/07/17 00:45:09;;;;;;;8.23;3.90;;;14.30;99.90;;;;;;5028814;28;20064;-76
2022/07/17 00:47:59;;;;;;;4.10;3.00;;;14.30;99.90;;;;;;5054065;28;20064;-76
2022/07/17 00:50:50;;;;;;;6.38;3.28;;;14.20;99.90;;;;;;5052210;28;20104;-76
2022/07/17 00:53:16;;;;;;;6.53;3.08;;;14.20;99.90;;;;;;5013353;28;20471;-76
2022/07/17 00:55:42;;;;;;;5.43;3.10;;;14.20;99.90;;;;;;5033910;28;20084;-76
2022/07/17 00:58:09;;;;;;;5.82;3.40;;;14.20;99.90;;;;;;5033923;28;20040;-76
2022/07/17 01:00:35;;;;;;;5.82;3.53;;;14.10;99.90;;;;;;5033834;28;20463;-76
2022/07/17 01:03:01;;;;;;;6.47;3.40;;;14.10;99.90;;;;;;5033541;28;20103;-76
2022/07/17 01:05:26;;;;;;;7.70;3.50;;;14.10;99.90;;;;;;5033624;28;20029;-76
2022/07/17 01:07:52;;;;;;;4.78;3.08;;;14.00;99.90;;;;;;5033500;28;20383;-76
2022/07/17 01:10:18;;;;;;;7.25;3.17;;;14.00;99.90;;;;;;5015834;28;20021;-76
2022/07/17 01:12:47;;;;;;;5.78;3.58;;;14.00;99.90;;;;;;5033445;28;20029;-75
2022/07/17 01:15:14;;;;;;;6.40;3.60;;;14.00;99.90;;;;;;5033492;28;20026;-75
2022/07/17 01:17:41;;;;;;;4.72;3.10;;;13.90;99.90;;;;;;5033790;28;20025;-75
2022/07/17 01:20:09;;;;;;;8.80;3.00;;;13.90;99.90;;;;;;5033417;28;20029;-75
2022/07/17 01:23:00;;;;;;;6.75;3.47;;;13.90;99.90;;;;;;5033517;28;20034;-75
2022/07/17 01:25:26;;;;;;;6.43;3.40;;;13.90;99.90;;;;;;5031498;28;20048;-75
2022/07/17 01:27:52;;;;;;;4.60;3.03;;;13.90;99.90;;;;;;5033253;28;20037;-75
2022/07/17 01:30:18;;;;;;;5.82;3.53;;;13.90;99.90;;;;;;5015629;28;20505;-75
2022/07/17 01:32:44;;;;;;;5.65;3.05;;;13.90;99.90;;;;;;5033485;28;20108;-75
2022/07/17 01:35:12;;;;;;;6.53;3.45;;;13.90;99.90;;;;;;5033487;28;20447;-75
2022/07/17 01:37:39;;;;;;;4.63;3.20;;;13.80;99.90;;;;;;5033354;28;20049;-75
2022/07/17 01:40:06;;;;;;;6.63;3.22;;;13.80;99.90;;;;;;5033771;28;20036;-75
2022/07/17 01:42:31;;;;;;;4.43;3.03;;;13.80;99.90;;;;;;5033430;28;20479;-75
2022/07/17 01:44:57;;;;;;;5.30;2.70;;;13.80;99.90;;;;;;5025902;28;20036;-75
2022/07/17 01:47:23;;;;;;;8.15;3.22;;;13.80;99.90;;;;;;5015613;28;20125;-75
2022/07/17 01:49:56;;;;;;;5.68;3.08;;;13.80;99.90;;;;;;5033245;28;20025;-75
2022/07/17 01:52:23;;;;;;;5.28;2.95;;;13.70;99.90;;;;;;5033623;28;20033;-75
2022/07/17 01:54:49;;;;;;;5.97;3.00;;;13.70;99.90;;;;;;5013853;28;20029;-75
2022/07/17 01:57:15;;;;;;;5.80;2.80;;;13.70;99.90;;;;;;5025831;28;20051;-75
2022/07/17 01:59:41;;;;;;;5.75;3.33;;;13.70;99.90;;;;;;5033364;28;20068;-76
2022/07/17 02:02:07;;;;;;;5.90;2.85;;;13.70;99.90;;;;;;5012317;28;20077;-76
2022/07/17 02:04:35;;;;;;;5.63;3.00;;;13.60;99.90;;;;;;5015530;28;20070;-76
2022/07/17 02:07:02;;;;;;;6.53;3.20;;;13.60;99.90;;;;;;5011034;28;20036;-76
2022/07/17 02:09:28;;;;;;;5.53;3.20;;;13.60;99.90;;;;;;5015975;28;20071;-76
2022/07/17 02:11:53;;;;;;;6.50;3.47;;;13.60;99.90;;;;;;5017025;28;20426;-76
2022/07/17 02:14:19;;;;;;;7.80;3.35;;;13.50;99.90;;;;;;5016770;28;20025;-76
2022/07/17 02:16:45;;;;;;;4.60;3.10;;;13.50;99.90;;;;;;5016830;28;20036;-75
2022/07/17 02:19:11;;;;;;;4.00;2.88;;;13.50;99.90;;;;;;5015707;28;20467;-76
2022/07/17 02:21:37;;;;;;;8.98;3.38;;;13.50;99.90;;;;;;5016867;28;20041;-75
2022/07/17 02:24:03;;;;;;;5.65;2.97;;;13.40;99.90;;;;;;5016836;28;20594;-75
2022/07/17 02:26:28;;;;;;;4.97;3.10;;;13.40;99.90;;;;;;5016845;28;20124;-75
2022/07/17 02:28:54;;;;;;;7.35;3.22;;;13.30;99.90;;;;;;5016718;28;20029;-76
2022/07/17 02:31:21;;;;;;;4.97;3.08;;;13.30;99.90;;;;;;5016692;28;20105;-75
2022/07/17 02:33:46;;;;;;;5.93;3.20;;;13.30;99.90;;;;;;5017144;28;20033;-75
2022/07/17 02:36:12;;;;;;;6.28;3.20;;;13.30;99.90;;;;;;5015867;28;20370;-76
2022/07/17 02:38:37;;;;;;;4.93;3.40;;;13.20;99.90;;;;;;5016522;28;20088;-75
2022/07/17 02:41:03;;;;;;;5.25;3.05;;;13.10;99.90;;;;;;5016676;28;20032;-76
2022/07/17 02:43:29;;;;;;;5.82;3.13;;;13.10;99.90;;;;;;5015457;28;20076;-76
2022/07/17 02:45:54;;;;;;;4.63;3.20;;;13.00;99.90;;;;;;5016579;28;20026;-76
2022/07/17 02:48:20;;;;;;;5.93;3.17;;;13.00;99.90;;;;;;5016631;28;20038;-76
2022/07/17 02:50:46;;;;;;;5.13;3.40;;;13.00;99.90;;;;;;5015107;28;20072;-76
2022/07/17 02:53:11;;;;;;;6.07;3.67;;;12.90;99.90;;;;;;5002170;28;20038;-76
2022/07/17 02:55:37;;;;;;;7.20;3.67;;;12.90;99.90;;;;;;4998619;28;20026;-76
2022/07/17 02:58:03;;;;;;;6.13;3.28;;;12.90;99.90;;;;;;5016171;28;20030;-76
2022/07/17 03:00:28;;;;;;;6.13;3.25;;;12.90;99.90;;;;;;5016116;28;20037;-76
2022/07/17 03:02:55;;;;;;;5.55;3.15;;;12.80;99.90;;;;;;5029536;28;20502;-76
2022/07/17 03:05:20;;;;;;;8.52;3.40;;;12.80;99.90;;;;;;5035906;28;20102;-76
2022/07/17 03:07:46;;;;;;;6.15;3.25;;;12.70;99.90;;;;;;5035629;28;20068;-76
2022/07/17 03:10:13;;;;;;;4.45;3.08;;;12.70;99.90;;;;;;5004057;28;20041;-76
2022/07/17 03:12:39;;;;;;;9.60;3.60;;;12.70;99.90;;;;;;5025963;28;20018;-76
2022/07/17 03:15:05;;;;;;;6.43;3.40;;;12.70;99.90;;;;;;5021601;28;20040;-76
2022/07/17 03:17:31;;;;;;;5.07;3.20;;;12.60;99.90;;;;;;5020566;28;20453;-76
2022/07/17 03:19:57;;;;;;;10.40;3.65;;;12.60;99.90;;;;;;5035682;28;20072;-76
2022/07/17 03:22:22;;;;;;;7.25;3.85;;;12.50;99.90;;;;;;5033046;28;20387;-76
2022/07/17 03:24:48;;;;;;;6.63;3.40;;;12.50;99.90;;;;;;5015954;28;20034;-76
2022/07/17 03:27:14;;;;;;;6.40;3.83;;;12.50;99.90;;;;;;5015576;28;20026;-76
2022/07/17 03:29:39;;;;;;;7.43;4.03;;;12.50;99.90;;;;;;5015719;28;20034;-76
2022/07/17 03:32:05;;;;;;;5.38;3.40;;;12.50;99.90;;;;;;5015809;28;20030;-76
2022/07/17 03:34:31;;;;;;;5.45;3.50;;;12.50;99.90;;;;;;5015575;28;20463;-76
2022/07/17 03:36:56;;;;;;;4.45;3.10;;;12.50;99.90;;;;;;5015782;28;20447;-76
2022/07/17 03:39:22;;;;;;;9.02;3.45;;;12.50;99.90;;;;;;5015766;28;20037;-75
2022/07/17 03:41:48;;;;;;;8.23;3.65;;;12.50;99.90;;;;;;5025680;28;20029;-76
2022/07/17 03:44:13;;;;;;;5.20;3.50;;;12.50;99.90;;;;;;5035485;28;20025;-76
2022/07/17 03:46:39;;;;;;;6.57;3.38;;;12.50;99.90;;;;;;5035030;28;20041;-75
2022/07/17 03:49:04;;;;;;;5.18;3.45;;;12.50;99.90;;;;;;5035415;28;20022;-76
2022/07/17 03:51:30;;;;;;;6.60;3.55;;;12.40;99.90;;;;;;5044986;28;20104;-76
2022/07/17 03:53:56;;;;;;;4.35;3.00;;;12.40;99.90;;;;;;5034947;28;20025;-76
2022/07/17 03:56:21;;;;;;;4.88;3.58;;;12.40;99.90;;;;;;5034864;28;20136;-76
2022/07/17 03:58:47;;;;;;;7.43;3.65;;;12.40;99.90;;;;;;5035109;28;20029;-76
2022/07/17 04:01:12;;;;;;;4.47;3.47;;;12.40;99.90;;;;;;5034988;28;20060;-76
2022/07/17 04:03:38;;;;;;;6.18;3.50;;;12.40;99.90;;;;;;5016610;28;20495;-76
2022/07/17 04:06:04;;;;;;;7.40;3.40;;;12.40;99.90;;;;;;5016952;28;20771;-76
2022/07/17 04:08:30;;;;;;;7.65;3.88;;;12.30;99.90;;;;;;5035184;28;20029;-75
2022/07/17 04:10:55;;;;;;;4.68;3.25;;;12.30;99.90;;;;;;5034781;28;20025;-76
2022/07/17 04:13:21;;;;;;;10.18;3.90;;;12.30;99.90;;;;;;5034859;28;20030;-76
2022/07/17 04:15:49;;;;;;;6.00;3.55;;;12.30;99.90;;;;;;5035081;28;20045;-76
2022/07/17 04:18:27;;;;;;;9.18;3.42;;;12.30;99.90;;;;;;5017408;28;20112;-76
2022/07/17 04:20:54;;;;;;;7.95;3.38;;;12.30;99.90;;;;;;5035766;28;20030;-76
2022/07/17 04:23:19;;;;;;;6.40;3.28;;;12.40;99.90;;;;;;5035964;28;20029;-76
2022/07/17 04:25:45;;;;;;;6.95;3.60;;;12.40;99.90;;;;;;5035678;28;20034;-76
2022/07/17 04:28:12;;;;;;;6.25;3.30;;;12.40;99.90;;;;;;5034694;28;20064;-76
2022/07/17 04:30:38;;;;;;;5.90;3.40;;;12.50;99.90;;;;;;5034659;28;20025;-76
2022/07/17 04:33:04;;;;;;;8.48;3.90;;;12.50;99.90;;;;;;5017565;28;20496;-75
2022/07/17 04:35:30;;;;;;;6.97;3.78;;;12.50;99.90;;;;;;5019195;28;20069;-75
2022/07/17 04:37:56;;;;;;;6.93;3.58;;;12.60;99.90;;;;;;5021335;28;20033;-76
2022/07/17 04:40:22;;;;;;;5.25;3.55;;;12.60;99.90;;;;;;5014427;28;20041;-76
2022/07/17 04:42:47;;;;;;;5.13;3.67;;;12.70;99.90;;;;;;5014066;28;20085;-76
2022/07/17 04:45:13;;;;;;;4.95;3.58;;;12.80;99.90;;;;;;5025216;28;20041;-76
2022/07/17 04:47:39;;;;;;;6.45;3.55;;;12.90;99.90;;;;;;5015906;28;20083;-76
2022/07/17 04:50:06;;;;;;;8.10;3.97;;;12.90;99.90;;;;;;5033373;28;20033;-76
2022/07/17 04:52:31;;;;;;;8.48;3.75;;;13.00;99.90;;;;;;5033664;28;20069;-69
2022/07/17 04:54:57;;;;;;;5.68;3.67;;;13.10;99.90;;;;;;5033409;28;20101;-69
2022/07/17 04:57:23;;;;;;;7.72;3.33;;;13.20;99.90;;;;;;5033730;28;20530;-70
2022/07/17 04:59:48;;;;;;;6.93;3.70;;;13.30;99.90;;;;;;5033554;28;20025;-70
2022/07/17 05:02:14;;;;;;;5.10;3.50;;;13.40;99.90;;;;;;5033578;28;20452;-72
2022/07/17 05:04:39;;;;;;;5.95;3.63;;;13.50;99.90;;;;;;5033030;28;20548;-72
2022/07/17 05:07:05;;;;;;;7.25;3.50;;;13.50;99.90;;;;;;5033742;28;20021;-72
2022/07/17 05:09:31;;;;;;;6.38;3.72;;;13.70;99.90;;;;;;5033919;28;20049;-73
2022/07/17 05:11:56;;;;;;;7.85;4.00;;;13.70;99.90;;;;;;5032184;28;20026;-71
2022/07/17 05:14:22;;;;;;;5.32;3.60;;;13.80;99.90;;;;;;5024865;28;20067;-71
2022/07/17 05:16:48;;;;;;;6.10;3.38;;;14.00;99.90;;;;;;5026348;28;20079;-70
2022/07/17 05:19:13;;;;;;;10.63;3.72;;;14.00;99.90;;;;;;5011278;28;20040;-71
2022/07/17 05:21:39;;;;;;;8.40;3.83;;;14.10;99.90;;;;;;5028160;28;20034;-69
2022/07/17 05:24:05;;;;;;;10.88;3.50;;;14.20;99.90;;;;;;5029044;28;20022;-69
2022/07/17 05:26:30;;;;;;;6.20;3.83;;;14.30;99.90;;;;;;5029873;28;20155;-69
2022/07/17 05:28:56;;;;;;;5.80;3.50;;;14.40;99.90;;;;;;5028601;28;20055;-69
2022/07/17 05:31:21;;;;;;;7.72;3.85;;;14.50;99.90;;;;;;5028744;28;20398;-70
2022/07/17 05:33:47;;;;;;;7.30;4.50;;;14.60;99.90;;;;;;5029603;28;20139;-69
2022/07/17 05:36:12;;;;;;;7.28;3.60;;;14.80;99.90;;;;;;5029507;28;20032;-69
2022/07/17 05:38:38;;;;;;;7.20;4.00;;;14.90;99.90;;;;;;5029553;28;20505;-70
2022/07/17 05:41:04;;;;;;;6.75;4.10;;;15.10;99.90;;;;;;5031614;28;20038;-69
2022/07/17 05:43:30;;;;;;;6.72;3.90;;;15.20;99.90;;;;;;5033395;28;20032;-69
2022/07/17 05:45:57;;;;;;;7.38;3.83;;;15.40;99.90;;;;;;5034302;28;20112;-69
2022/07/17 05:48:23;;;;;;;7.45;3.70;;;15.50;99.90;;;;;;5034070;28;20183;-69
2022/07/17 05:50:48;;;;;;;6.85;3.80;;;15.70;99.90;;;;;;5033213;28;20125;-69
2022/07/17 05:53:14;;;;;;;5.28;3.53;;;15.90;99.90;;;;;;5033126;28;20374;-69
2022/07/17 05:55:40;;;;;;;9.30;3.58;;;16.00;99.90;;;;;;5034003;28;20022;-69
2022/07/17 05:58:06;;;;;;;5.72;3.35;;;16.20;99.90;;;;;;5033699;28;20037;-69
2022/07/17 06:00:32;;;;;;;8.10;3.75;;;16.40;99.90;;;;;;5033889;28;20836;-69
2022/07/17 06:02:59;;;;;;;10.32;3.53;;;16.60;99.90;;;;;;5031639;28;20053;-69
2022/07/17 06:05:26;;;;;;;6.40;3.58;;;16.70;99.90;;;;;;5030649;28;20037;-69
2022/07/17 06:07:53;;;;;;;5.90;3.50;;;16.90;99.90;;;;;;5015576;28;20051;-69
2022/07/17 06:10:19;;;;;;;6.90;3.10;;;17.10;99.90;;;;;;5034002;28;20026;-69
2022/07/17 06:12:45;;;;;;;5.40;3.47;;;17.20;99.90;;;;;;5030637;28;20092;-72
2022/07/17 06:15:11;;;;;;;6.15;3.33;;;17.40;99.90;;;;;;5030116;28;20108;-71
2022/07/17 06:17:37;;;;;;;7.40;3.95;;;17.50;99.90;;;;;;5015919;28;20480;-71
2022/07/17 06:20:04;;;;;;;4.82;3.30;;;17.70;99.90;;;;;;5031524;28;20034;-72
2022/07/17 06:22:30;;;;;;;4.40;3.05;;;17.80;99.90;;;;;;5035575;28;20517;-73
2022/07/17 06:24:55;;;;;;;6.50;3.50;;;18.00;99.90;;;;;;5035070;28;20109;-72
2022/07/17 06:27:21;;;;;;;5.85;3.20;;;18.10;99.90;;;;;;5032449;28;20040;-73
2022/07/17 06:29:47;;;;;;;7.45;3.10;;;18.30;99.90;;;;;;5033233;28;20056;-72
2022/07/17 06:32:13;;;;;;;6.68;3.25;;;18.40;99.90;;;;;;5026185;28;20053;-72
2022/07/17 06:34:38;;;;;;;13.20;3.53;;;18.50;99.90;;;;;;5032185;28;20471;-72
2022/07/17 06:37:04;;;;;;;7.47;2.95;;;18.60;99.90;;;;;;5032717;28;20443;-72
2022/07/17 06:39:30;;;;;;;5.93;3.08;;;18.70;99.90;;;;;;5032044;28;20452;-72
2022/07/17 06:41:55;;;;;;;6.75;2.90;;;18.90;99.90;;;;;;5028111;28;20123;-72
2022/07/17 06:44:21;;;;;;;6.60;3.55;;;19.00;99.90;;;;;;5029043;28;20033;-73
2022/07/17 06:46:46;;;;;;;4.80;3.00;;;19.20;99.90;;;;;;5031384;28;20044;-73
2022/07/17 06:49:14;;;;;;;6.97;2.95;;;19.30;99.90;;;;;;5031005;28;20465;-69
2022/07/17 06:51:40;;;;;;;5.72;3.08;;;19.50;99.90;;;;;;5026087;28;20102;-70
2022/07/17 06:54:06;;;;;;;7.43;3.17;;;19.60;99.90;;;;;;5023555;28;20033;-69
2022/07/17 06:56:34;;;;;;;6.35;3.20;;;19.80;99.90;;;;;;5026593;28;20033;-70
2022/07/17 06:59:00;;;;;;;5.05;2.85;;;19.90;99.90;;;;;;5032435;28;20474;-73
2022/07/17 07:01:26;;;;;;;4.90;3.15;;;20.00;99.90;;;;;;5013142;28;20091;-72
2022/07/17 07:03:52;;;;;;;6.53;3.20;;;20.10;99.90;;;;;;5031888;28;20080;-69
2022/07/17 07:06:18;;;;;;;8.80;2.88;;;20.20;99.90;;;;;;5011502;28;20056;-68
2022/07/17 07:08:43;;;;;;;10.60;3.58;;;20.20;99.90;;;;;;5038269;28;20049;-69
2022/07/17 07:11:09;;;;;;;9.00;3.03;;;20.20;99.90;;;;;;5016288;28;20022;-68
2022/07/17 07:13:34;;;;;;;6.30;3.00;;;20.20;99.90;;;;;;5034038;28;20437;-82
2022/07/17 07:18:47;;;;;;;5.95;2.63;;;20.40;99.90;;;;;;5032058;28;20106;-69
2022/07/17 07:21:13;;;;;;;5.28;3.03;;;20.50;99.90;;;;;;5019406;28;20120;-68
2022/07/17 07:23:39;;;;;;;5.05;2.65;;;20.60;99.90;;;;;;5016190;28;20042;-68
2022/07/17 07:26:04;;;;;;;5.15;2.67;;;20.70;99.90;;;;;;5030092;28;20040;-68
2022/07/17 07:28:30;;;;;;;5.47;2.30;;;20.70;99.90;;;;;;5045276;28;20462;-71
2022/07/17 07:30:56;;;;;;;3.45;2.42;;;20.70;99.90;;;;;;5037294;28;20025;-72
2022/07/17 07:33:21;;;;;;;6.20;2.70;;;20.90;99.90;;;;;;5030897;28;20104;-71
2022/07/17 07:35:47;;;;;;;8.40;2.50;;;20.90;99.90;;;;;;5028712;28;20032;-72
2022/07/17 07:38:13;;;;;;;7.07;2.35;;;21.00;99.90;;;;;;5026135;28;20022;-69
2022/07/17 07:40:41;;;;;;;6.93;2.65;;;21.10;99.90;;;;;;5018972;28;20048;-72
2022/07/17 07:43:07;;;;;;;4.88;2.50;;;21.20;99.90;;;;;;5025216;28;20099;-69
2022/07/17 07:45:33;;;;;;;6.00;2.28;;;21.20;99.90;;;;;;5022317;28;20025;-69
2022/07/17 07:47:58;;;;;;;5.60;2.10;;;21.20;99.90;;;;;;5023928;28;20025;-69
2022/07/17 07:50:25;;;;;;;6.25;2.30;;;21.30;99.90;;;;;;5022706;28;20021;-69
2022/07/17 07:52:51;;;;;;;3.80;2.20;;;21.30;99.90;;;;;;5023085;28;20033;-69
2022/07/17 07:55:17;;;;;;;7.30;3.05;;;21.40;99.90;;;;;;5015932;28;20033;-69
2022/07/17 07:57:43;;;;;;;5.93;2.33;;;21.50;99.90;;;;;;5024247;28;20529;-69
2022/07/17 08:00:11;;;;;;;8.63;2.35;;;21.50;99.90;;;;;;5029958;28;20112;-70
2022/07/17 08:02:37;;;;;;;6.75;2.00;;;21.70;99.90;;;;;;5026523;28;20053;-70
2022/07/17 08:05:03;;;;;;;5.65;2.40;;;21.70;99.90;;;;;;5030712;28;20025;-71
2022/07/17 08:07:30;;;;;;;4.72;1.98;;;21.90;99.90;;;;;;5034194;28;20041;-71
2022/07/17 08:09:56;;;;;;;3.42;1.95;;;21.90;99.90;;;;;;5031606;28;20017;-71
2022/07/17 08:12:23;;;;;;;9.23;2.60;;;22.00;99.90;;;;;;5031399;28;20049;-72
2022/07/17 08:14:56;;;;;;;5.07;1.88;;;22.10;99.90;;;;;;5034885;28;20516;-72
2022/07/17 08:17:22;;;;;;;5.28;2.15;;;22.20;99.70;;;;;;5003006;28;20046;-69
2022/07/17 08:19:47;;;;;;;6.07;1.98;;;22.30;99.80;;;;;;5022641;28;20084;-74
2022/07/17 08:22:18;;;;;;;2.97;1.88;;;22.30;99.80;;;;;;5023533;28;20378;-73
2022/07/17 08:24:46;;;;;;;3.40;2.00;;;22.40;99.20;;;;;;5023821;28;20021;-73
2022/07/17 08:27:12;;;;;;;4.05;2.08;;;22.50;98.00;;;;;;5021793;28;20494;-72
2022/07/17 08:29:37;;;;;;;4.03;1.73;;;22.50;98.10;;;;;;5026443;28;20065;-73
2022/07/17 08:32:03;;;;;;;7.32;4.70;;;22.60;96.40;;;;;;5017925;28;20092;-72
2022/07/17 08:34:29;;;;;;;8.82;3.13;;;22.70;96.60;;;;;;5017611;28;20105;-73
2022/07/17 08:36:54;;;;;;;6.10;2.55;;;22.70;96.80;;;;;;5019482;28;20022;-72
2022/07/17 08:39:20;;;;;;;7.72;2.05;;;22.80;96.80;;;;;;5024034;28;20030;-72
2022/07/17 08:41:46;;;;;;;4.68;2.00;;;22.80;97.30;;;;;;5016361;28;20026;-72
2022/07/17 08:44:12;;;;;;;5.75;2.15;;;22.90;97.10;;;;;;5017308;28;20046;-72
2022/07/17 08:46:39;;;;;;;4.90;2.22;;;22.90;96.40;;;;;;5012700;28;20037;-72
2022/07/17 08:49:06;;;;;;;4.93;1.80;;;22.90;96.30;;;;;;5016240;28;20135;-72
2022/07/17 08:51:33;;;;;;;4.88;1.85;;;22.90;96.70;;;;;;5019962;28;20040;-73
2022/07/17 08:54:00;;;;;;;6.28;2.00;;;23.00;97.40;;;;;;5007868;28;20041;-77
2022/07/17 08:56:27;;;;;;;4.30;2.15;;;23.10;97.40;;;;;;5022439;28;20025;-70
2022/07/17 08:58:57;;;;;;;5.35;1.95;;;23.10;97.30;;;;;;5028051;28;20040;-69
2022/07/17 09:01:23;;;;;;;5.47;1.95;;;23.20;95.80;;;;;;5030291;28;20026;-70
2022/07/17 09:04:05;;;;;;;4.45;2.00;;;23.20;95.20;;;;;;5032369;28;20108;-69
2022/07/17 09:06:32;;;;;;;4.32;1.80;;;23.20;94.90;;;;;;5017339;28;20167;-70
2022/07/17 09:09:06;;;;;;;4.25;1.88;;;23.20;95.50;;;;;;5030989;28;20026;-70
2022/07/17 09:11:47;;;;;;;6.20;2.00;;;23.20;95.00;;;;;;5033347;28;20021;-69
2022/07/17 09:14:13;;;;;;;3.03;1.83;;;23.40;95.60;;;;;;5027055;28;20052;-71
2022/07/17 09:16:53;;;;;;;4.22;1.95;;;23.40;95.40;;;;;;5028729;28;20497;-72
2022/07/17 09:19:31;;;;;;;3.65;2.00;;;23.60;94.10;;;;;;5019733;28;20030;-72
2022/07/17 09:22:24;;;;;;;3.63;1.95;;;23.70;94.40;;;;;;5019328;28;20032;-72
2022/07/17 09:24:56;;;;;;;2.85;1.77;;;23.90;93.10;;;;;;4984508;28;20033;-69
2022/07/17 09:27:32;;;;;;;4.95;1.80;;;24.00;92.30;;;;;;5021828;28;20053;-68
2022/07/17 09:30:13;;;;;;;5.47;2.30;;;24.10;92.30;;;;;;5020371;28;20022;-68
2022/07/17 09:32:41;;;;;;;11.20;2.00;;;24.20;92.70;;;;;;5017827;28;20021;-68
2022/07/17 09:35:10;;;;;;;4.32;2.10;;;24.30;92.50;;;;;;5024651;28;20028;-69
2022/07/17 09:37:37;;;;;;;4.03;1.80;;;24.40;90.80;;;;;;5022292;28;20030;-69
2022/07/17 09:41:09;;;;;;;5.00;2.10;;;24.50;91.20;;;;;;5021963;28;20057;-69
2022/07/17 09:43:08;;;;;;;3.72;1.88;;;24.70;90.50;;;;;;5023619;28;20389;-69
2022/07/17 09:45:35;;;;;;;3.03;1.95;;;25.00;89.60;;;;;;5006219;28;20018;-66
2022/07/17 09:48:03;;;;;;;7.78;1.80;;;25.30;87.20;;;;;;5018707;28;20022;-68
2022/07/17 09:50:29;;;;;;;6.55;2.00;;;25.50;85.70;;;;;;5018854;28;20033;-71
2022/07/17 09:53:00;;;;;;;3.42;1.73;;;25.70;84.30;;;;;;5018182;28;20477;-69
2022/07/17 09:55:30;;;;;;;8.60;2.42;;;25.90;84.10;;;;;;5015914;28;20021;-69
2022/07/17 09:57:58;;;;;;;6.65;1.95;;;26.10;84.60;;;;;;5031370;28;20029;-68
2022/07/17 10:00:24;;;;;;;5.15;1.80;;;26.20;86.20;;;;;;5029272;28;20536;-69
2022/07/17 10:02:51;;;;;;;4.22;1.85;;;26.40;83.00;;;;;;5024319;28;20443;-70
2022/07/17 10:05:17;;;;;;;4.28;2.55;;;26.60;83.10;;;;;;5043773;22;20502;-68
2022/07/17 10:07:45;;;;;;;4.00;1.70;;;26.50;80.90;;;;;;5047887;28;20037;-67
2022/07/17 10:10:12;;;;;;;3.65;2.00;;;26.50;79.70;;;;;;5050291;28;20036;-67
2022/07/17 10:12:40;;;;;;;5.13;1.63;;;26.60;79.10;;;;;;5060823;23;20452;-67
2022/07/17 10:15:07;;;;;;;5.18;1.77;;;26.60;79.70;;;;;;5047237;28;20096;-69
2022/07/17 10:17:33;;;;;;;7.28;1.73;;;26.90;79.90;;;;;;5050152;28;20021;-70
2022/07/17 10:19:59;;;;;;;4.22;1.80;;;27.20;76.10;;;;;;5047571;28;20036;-67
2022/07/17 10:22:26;;;;;;;4.68;1.77;;;27.30;76.30;;;;;;5046972;28;20044;-68
2022/07/17 10:24:54;;;;;;;2.15;1.40;;;27.50;77.50;;;;;;5046895;28;20472;-68
2022/07/17 10:27:25;;;;;;;4.28;2.00;;;27.70;75.80;;;;;;5054502;28;20755;-68
2022/07/17 10:30:05;;;;;;;4.10;1.52;;;27.60;78.10;;;;;;5049486;28;20017;-67
2022/07/17 10:32:31;;;;;;;4.65;2.20;;;27.60;78.00;;;;;;5049044;28;20036;-68
2022/07/17 10:35:10;;;;;;;4.88;1.73;;;27.90;73.90;;;;;;5049783;28;20036;-68
2022/07/17 10:37:36;;;;;;;3.70;1.80;;;27.90;74.60;;;;;;5047975;28;20041;-68
2022/07/17 10:40:23;;;;;;;5.65;1.85;;;28.00;73.80;;;;;;5049063;28;20095;-67
2022/07/17 10:43:02;;;;;;;4.68;1.52;;;27.80;74.30;;;;;;5031183;28;20032;-70
2022/07/17 10:45:34;;;;;;;3.97;1.67;;;27.90;72.80;;;;;;5048613;28;20033;-70
2022/07/17 10:48:01;;;;;;;6.50;2.00;;;27.70;73.40;;;;;;5044881;28;20143;-67
2022/07/17 10:50:35;;;;;;;4.15;1.80;;;27.70;72.50;;;;;;5046765;28;20081;-67
2022/07/17 10:53:05;;;;;;;2.53;1.73;;;27.70;74.80;;;;;;5032038;28;20021;-70
2022/07/17 10:55:31;;;;;;;6.63;1.88;;;28.00;70.90;;;;;;5050571;28;20060;-66
2022/07/17 10:57:57;;;;;;;4.97;1.60;;;28.00;71.60;;;;;;5049849;28;20060;-66
2022/07/17 11:00:23;;;;;;;6.25;2.67;;;28.00;71.80;;;;;;5049333;28;20033;-67
2022/07/17 11:02:49;;;;;;;5.53;1.88;;;28.00;72.00;;;;;;5051174;28;20040;-67
2022/07/17 11:05:15;;;;;;;3.35;1.90;;;28.20;70.30;;;;;;5049675;28;20121;-67
2022/07/17 11:08:00;;;;;;;5.40;1.73;;;28.30;69.80;;;;;;5044861;28;20036;-67
2022/07/17 11:10:27;;;;;;;4.25;1.90;;;28.20;68.90;;;;;;5036312;28;20148;-71
2022/07/17 11:13:10;;;;;;;6.50;1.65;;;28.10;73.30;;;;;;5044950;28;20490;-67
2022/07/17 11:15:47;;;;;;;4.10;1.70;;;28.10;73.60;;;;;;5044781;28;20079;-67
2022/07/17 11:18:14;;;;;;;5.15;1.42;;;28.50;68.70;;;;;;5047374;28;20041;-67
2022/07/17 11:21:00;;;;;;;6.82;1.65;;;28.70;70.60;;;;;;5047647;28;20033;-72
2022/07/17 11:23:29;;;;;;;4.78;1.60;;;28.80;72.00;;;;;;5048178;28;20040;-68
2022/07/17 11:25:56;;;;;;;7.57;1.80;;;29.10;69.00;;;;;;5039477;28;20033;-67
2022/07/17 11:28:43;;;;;;;9.77;3.92;;;29.40;68.90;;;;;;5045819;28;20038;-66
2022/07/17 11:31:18;;;;;;;4.82;1.88;;;29.50;69.80;;;;;;5048310;28;20029;-69
2022/07/17 11:34:05;;;;;;;7.60;2.00;;;29.80;68.80;;;;;;5042713;28;20025;-67
2022/07/17 11:36:36;;;;;;;10.95;1.98;;;30.10;67.40;;;;;;5046992;28;20028;-67
2022/07/17 11:39:06;;;;;;;3.03;1.70;;;30.40;64.00;;;;;;5046149;28;20132;-68
2022/07/17 11:41:33;;;;;;;4.90;1.70;;;30.70;64.00;;;;;;5028423;28;20477;-68
2022/07/17 11:43:58;;;;;;;5.07;1.95;;;30.50;64.50;;;;;;5048889;28;20057;-69
2022/07/17 11:46:26;;;;;;;3.08;1.58;;;30.90;64.20;;;;;;5045702;28;20072;-68
2022/07/17 11:48:52;;;;;;;12.18;2.28;;;31.10;63.00;;;;;;5045473;28;20033;-67
2022/07/17 11:51:18;;;;;;;5.32;1.80;;;31.10;63.80;;;;;;5046527;28;20090;-67
2022/07/17 11:53:44;;;;;;;5.68;1.60;;;31.10;61.60;;;;;;5045281;28;20025;-68
2022/07/17 11:56:20;;;;;;;4.20;1.73;;;30.90;62.20;;;;;;5046000;28;20105;-67
2022/07/17 11:58:47;;;;;;;2.58;1.40;;;30.80;63.00;;;;;;5047188;28;20032;-69
2022/07/17 12:01:14;;;;;;;4.82;1.80;;;30.80;60.90;;;;;;5045110;28;20246;-69
2022/07/17 12:03:40;;;;;;;4.40;1.60;;;30.50;60.70;;;;;;5050008;28;20879;-68
2022/07/17 12:06:07;;;;;;;2.97;1.42;;;30.40;63.40;;;;;;5050749;28;20472;-68
2022/07/17 12:08:33;;;;;;;6.25;1.35;;;30.30;60.90;;;;;;5047959;28;20021;-70
2022/07/17 12:11:00;;;;;;;5.35;1.55;;;30.40;60.70;;;;;;5047691;28;20031;-67
2022/07/17 12:13:43;;;;;;;2.08;1.52;;;30.60;61.70;;;;;;5044496;28;20437;-70
2022/07/17 12:16:29;;;;;;;4.53;1.60;;;31.00;59.10;;;;;;5050694;28;20021;-68
2022/07/17 12:19:15;;;;;;;5.00;1.70;;;31.00;60.50;;;;;;5046443;28;20029;-67
2022/07/17 12:21:56;;;;;;;3.22;1.85;;;31.00;56.80;;;;;;5045179;28;20389;-68
2022/07/17 12:24:33;;;;;;;3.05;1.50;;;31.00;57.80;;;;;;5049292;28;20031;-71
2022/07/17 12:27:05;;;;;;;5.03;1.67;;;31.10;56.80;;;;;;5050160;28;20071;-68
2022/07/17 12:29:31;;;;;;;3.90;1.65;;;31.20;56.60;;;;;;5049848;28;20373;-71
2022/07/17 12:32:09;;;;;;;3.65;1.70;;;31.40;57.10;;;;;;5050446;28;20029;-68
2022/07/17 12:34:37;;;;;;;4.72;1.67;;;31.30;55.50;;;;;;5048978;28;20029;-67
2022/07/17 12:37:05;;;;;;;3.80;1.60;;;31.30;56.30;;;;;;5049772;28;20039;-68
2022/07/17 12:39:31;;;;;;;5.97;1.75;;;31.30;59.00;;;;;;5047300;28;20032;-69
2022/07/17 12:41:57;;;;;;;5.25;1.65;;;31.60;58.00;;;;;;5045730;28;20029;-68
2022/07/17 12:44:26;;;;;;;6.65;1.77;;;31.40;55.60;;;;;;5044300;28;20097;-67
2022/07/17 12:46:54;;;;;;;3.47;1.67;;;31.90;55.20;;;;;;5050743;28;20481;-71
2022/07/17 12:49:19;;;;;;;4.55;1.60;;;31.90;55.30;;;;;;5049731;28;20025;-72
2022/07/17 12:51:46;;;;;;;3.42;1.83;;;32.00;56.90;;;;;;5048594;28;20103;-68